Terminal Aerodrome Forecast
Issued by NWS

Home | Current Version | Previous Version | Text Only | Print | Product List | Glossary On
Versions: 1 2 3 4 5 6 7 8 9 10 11 12 13 14 15
000
FTUS42 TJSJ 271140
TAFISX
TAF
TISX 271140Z 2712/2812 14005KT P6SM FEW022 FEW120
     FM271300 14012KT P6SM SCT030 SCT050
     FM272300 VRB06KT P6SM VCSH SCT025 BKN050=

USA.gov is the U.S. government's official web portal to all federal, state and local government web resources and services.